Time;durP1;ratioP1;P1;durP2;ratioP2;P2;SDS_P1;SDS_P2;PMS_P1;PMS_P2;Temp;Humidity;BMP_temperature;BMP_pressure;BME280_temperature;BME280_humidity;BME280_pressure;Samples;Min_cycle;Max_cycle;Signal;HPM_P1;HPM_P2
2024/03/02 00:00:20;;;;;;;17.80;7.87;;;2.40;99.90;;;;;;5033801;28;20190;-58
2024/03/02 00:02:48;;;;;;;23.33;9.47;;;2.40;99.90;;;;;;5033434;28;20203;-59
2024/03/02 00:05:15;;;;;;;22.07;9.83;;;2.40;99.90;;;;;;5033506;28;20172;-60
2024/03/02 00:07:42;;;;;;;26.87;10.40;;;2.40;99.90;;;;;;5032868;28;20260;-59
2024/03/02 00:10:13;;;;;;;29.93;10.53;;;2.50;99.90;;;;;;5033325;28;20192;-59
2024/03/02 00:12:39;;;;;;;19.83;9.37;;;2.50;99.90;;;;;;5033146;28;20632;-58
2024/03/02 00:15:30;;;;;;;22.53;10.53;;;2.50;99.90;;;;;;5033798;28;20253;-59
2024/03/02 00:17:56;;;;;;;23.07;10.10;;;2.50;99.90;;;;;;5041013;28;20184;-58
2024/03/02 00:20:27;;;;;;;17.73;9.47;;;2.40;99.90;;;;;;5033569;28;20444;-57
2024/03/02 00:23:04;;;;;;;24.10;9.63;;;2.30;99.90;;;;;;5041546;28;20264;-59
2024/03/02 00:25:41;;;;;;;21.57;9.57;;;2.30;99.90;;;;;;5033071;28;20266;-61
2024/03/02 00:28:19;;;;;;;22.43;9.60;;;2.20;99.90;;;;;;5037202;28;20175;-60
2024/03/02 00:31:08;;;;;;;21.30;9.60;;;2.20;99.90;;;;;;5044825;28;20187;-58
2024/03/02 00:33:37;;;;;;;19.97;9.80;;;2.10;99.90;;;;;;5045256;28;20226;-59
2024/03/02 00:36:04;;;;;;;22.07;9.50;;;2.30;99.90;;;;;;5036737;28;20213;-59
2024/03/02 00:38:31;;;;;;;20.07;9.97;;;2.30;99.90;;;;;;5044131;28;20179;-58
2024/03/02 00:41:07;;;;;;;21.00;9.57;;;2.30;99.90;;;;;;5041502;28;20211;-59
2024/03/02 00:43:46;;;;;;;22.33;9.93;;;2.40;99.90;;;;;;5040777;28;20226;-57
2024/03/02 00:46:18;;;;;;;21.40;9.53;;;2.30;99.90;;;;;;5043441;28;20270;-56
2024/03/02 00:48:55;;;;;;;22.33;10.03;;;2.20;99.90;;;;;;5033645;28;20196;-59
2024/03/02 00:51:26;;;;;;;18.50;9.27;;;2.10;99.90;;;;;;5032172;28;20187;-58
2024/03/02 00:53:55;;;;;;;19.60;10.07;;;2.10;99.90;;;;;;5031386;28;20215;-59
2024/03/02 00:56:21;;;;;;;19.20;9.63;;;2.10;99.90;;;;;;5031531;28;20191;-59
2024/03/02 00:58:47;;;;;;;20.07;9.73;;;2.20;99.90;;;;;;5031024;28;20188;-60
2024/03/02 01:01:13;;;;;;;22.80;9.83;;;2.30;99.90;;;;;;5031604;28;20572;-57
2024/03/02 01:03:38;;;;;;;21.07;10.03;;;2.20;99.90;;;;;;5031041;28;20270;-57
2024/03/02 01:06:04;;;;;;;21.77;10.10;;;2.20;99.90;;;;;;5031409;28;20603;-55
2024/03/02 01:08:30;;;;;;;20.53;9.20;;;2.20;99.90;;;;;;5030930;28;20176;-61
2024/03/02 01:10:56;;;;;;;18.87;9.73;;;2.20;99.90;;;;;;5031658;28;20589;-58
2024/03/02 01:13:23;;;;;;;21.53;9.57;;;2.30;99.90;;;;;;5031003;28;20214;-60
2024/03/02 01:15:49;;;;;;;21.93;9.90;;;2.20;99.90;;;;;;5031403;28;20252;-60
2024/03/02 01:18:15;;;;;;;20.90;9.77;;;2.20;99.90;;;;;;5030937;28;20248;-59
2024/03/02 01:20:40;;;;;;;20.07;10.10;;;2.20;99.90;;;;;;5031786;28;20710;-60
2024/03/02 01:23:06;;;;;;;21.83;10.17;;;2.20;99.90;;;;;;5031311;28;20275;-59
2024/03/02 01:25:31;;;;;;;22.97;9.93;;;2.20;99.90;;;;;;5031635;28;20183;-59
2024/03/02 01:27:57;;;;;;;19.87;9.30;;;2.20;99.90;;;;;;5030646;28;20192;-59
2024/03/02 01:30:22;;;;;;;25.67;10.57;;;2.20;99.90;;;;;;5031394;28;20222;-59
2024/03/02 01:32:48;;;;;;;26.30;10.67;;;2.30;99.90;;;;;;5031198;28;20226;-60
2024/03/02 01:35:14;;;;;;;19.23;10.13;;;2.20;99.90;;;;;;5031711;28;20215;-60
2024/03/02 01:37:41;;;;;;;18.93;9.63;;;2.20;99.90;;;;;;5030915;28;20226;-57
2024/03/02 01:40:09;;;;;;;26.03;10.23;;;2.20;99.90;;;;;;5031928;28;20187;-58
2024/03/02 01:42:38;;;;;;;21.93;10.80;;;2.20;99.90;;;;;;5031091;28;20695;-59
2024/03/02 01:45:08;;;;;;;22.53;10.47;;;2.20;99.90;;;;;;5002950;28;1075872;-56
2024/03/02 01:47:34;;;;;;;19.57;9.83;;;2.20;99.90;;;;;;5032004;28;20290;-58
2024/03/02 01:50:00;;;;;;;23.00;10.33;;;2.20;99.90;;;;;;5032354;28;20711;-61
2024/03/02 01:52:26;;;;;;;25.03;10.57;;;2.20;99.90;;;;;;5020943;28;20235;-61
2024/03/02 01:54:51;;;;;;;20.17;10.33;;;2.20;99.90;;;;;;5051710;28;20238;-60
2024/03/02 01:57:18;;;;;;;20.73;10.23;;;2.10;99.90;;;;;;5042669;28;20674;-59
2024/03/02 01:59:44;;;;;;;23.87;10.23;;;2.10;99.90;;;;;;5034871;28;20187;-58
2024/03/02 02:02:09;;;;;;;24.00;10.40;;;2.10;99.90;;;;;;5052020;28;20198;-58
2024/03/02 02:04:35;;;;;;;21.80;11.00;;;2.10;99.90;;;;;;5035578;28;20192;-59
2024/03/02 02:07:01;;;;;;;18.50;10.10;;;2.10;99.90;;;;;;5031545;28;20274;-61
2024/03/02 02:09:26;;;;;;;20.60;9.77;;;2.20;99.90;;;;;;5039919;28;20716;-56
2024/03/02 02:11:52;;;;;;;19.70;10.17;;;2.20;99.90;;;;;;5031627;28;20242;-59
2024/03/02 02:14:18;;;;;;;24.20;10.27;;;2.20;99.90;;;;;;5030732;28;20565;-57
2024/03/02 02:16:44;;;;;;;19.47;9.40;;;2.30;99.90;;;;;;5032262;28;20572;-60
2024/03/02 02:19:10;;;;;;;19.40;8.70;;;2.30;99.90;;;;;;5046616;28;20183;-60
2024/03/02 02:21:36;;;;;;;19.40;8.60;;;2.20;99.90;;;;;;5048017;28;20218;-58
2024/03/02 02:24:03;;;;;;;17.30;8.70;;;2.20;99.90;;;;;;5039298;28;20486;-60
2024/03/02 02:26:29;;;;;;;18.60;8.67;;;2.10;99.90;;;;;;5031542;28;20194;-59
2024/03/02 02:28:55;;;;;;;17.67;8.30;;;2.10;99.90;;;;;;5030868;28;20195;-55
2024/03/02 02:31:20;;;;;;;17.50;8.07;;;2.00;99.90;;;;;;5031162;28;20195;-58
2024/03/02 02:33:46;;;;;;;15.53;8.50;;;2.00;99.90;;;;;;5031236;28;20231;-59
2024/03/02 02:36:11;;;;;;;17.67;8.40;;;2.00;99.90;;;;;;5031343;28;20617;-58
2024/03/02 02:38:42;;;;;;;16.80;8.70;;;2.10;99.90;;;;;;5038557;28;20206;-58
2024/03/02 02:41:08;;;;;;;17.53;8.07;;;2.10;99.90;;;;;;5030923;28;20176;-57
2024/03/02 02:43:34;;;;;;;18.10;8.80;;;2.10;99.90;;;;;;5038321;28;20556;-55
2024/03/02 02:45:59;;;;;;;16.03;8.43;;;2.10;99.90;;;;;;5033934;28;20184;-58
2024/03/02 02:48:25;;;;;;;18.00;8.03;;;2.10;99.90;;;;;;5041751;28;20274;-59
2024/03/02 02:50:51;;;;;;;15.47;8.53;;;2.20;99.90;;;;;;5033834;28;20195;-56
2024/03/02 02:53:16;;;;;;;20.57;8.73;;;2.20;99.90;;;;;;5050125;28;20211;-58
2024/03/02 02:55:43;;;;;;;17.93;8.97;;;2.20;99.90;;;;;;5041217;28;20198;-58
2024/03/02 02:58:09;;;;;;;16.93;8.60;;;2.20;99.90;;;;;;5029592;28;20183;-58
2024/03/02 03:00:36;;;;;;;17.77;8.80;;;2.20;99.90;;;;;;5030634;28;20263;-58
2024/03/02 03:03:02;;;;;;;17.27;9.20;;;2.20;99.90;;;;;;5030526;28;20261;-57
2024/03/02 03:05:27;;;;;;;17.47;9.03;;;2.30;99.90;;;;;;5030693;28;20196;-59
2024/03/02 03:07:53;;;;;;;23.27;8.53;;;2.30;99.90;;;;;;5029829;28;20192;-59
2024/03/02 03:10:21;;;;;;;15.20;8.30;;;2.20;99.90;;;;;;5030438;28;20610;-57
2024/03/02 03:12:47;;;;;;;14.90;8.77;;;2.20;99.90;;;;;;5029726;28;20239;-58
2024/03/02 03:15:14;;;;;;;17.77;8.70;;;2.20;99.90;;;;;;5030063;28;20243;-57
2024/03/02 03:17:40;;;;;;;22.13;9.17;;;2.10;99.90;;;;;;5029595;28;20188;-57
2024/03/02 03:20:09;;;;;;;19.30;9.33;;;2.10;99.90;;;;;;5030350;28;20536;-57
2024/03/02 03:22:35;;;;;;;21.70;9.90;;;2.10;99.90;;;;;;5030173;28;20211;-59
2024/03/02 03:25:01;;;;;;;20.23;10.70;;;2.00;99.90;;;;;;5029712;28;20674;-57
2024/03/02 03:27:27;;;;;;;21.57;10.03;;;2.00;99.90;;;;;;5029337;28;20187;-61
2024/03/02 03:29:52;;;;;;;21.07;10.23;;;2.00;99.90;;;;;;5029993;28;20696;-58
2024/03/02 03:32:18;;;;;;;23.70;10.10;;;2.00;99.90;;;;;;5030010;28;20207;-60
2024/03/02 03:34:43;;;;;;;19.47;8.57;;;2.00;99.90;;;;;;5030453;28;20617;-58
2024/03/02 03:37:09;;;;;;;19.13;9.40;;;2.10;99.90;;;;;;5040844;28;20565;-60
2024/03/02 03:39:36;;;;;;;19.03;8.93;;;2.00;99.90;;;;;;5033650;28;20655;-58
2024/03/02 03:42:01;;;;;;;18.20;9.47;;;2.00;99.90;;;;;;5040700;28;20183;-56
2024/03/02 03:44:27;;;;;;;16.80;8.77;;;1.90;99.90;;;;;;5041130;28;20218;-61
2024/03/02 03:46:52;;;;;;;18.63;9.00;;;1.80;99.90;;;;;;5039005;28;20745;-60
2024/03/02 03:49:18;;;;;;;18.87;9.07;;;1.80;99.90;;;;;;5034644;28;20233;-58
2024/03/02 03:51:43;;;;;;;22.33;10.07;;;1.80;99.90;;;;;;5032038;28;20188;-60
2024/03/02 03:54:11;;;;;;;20.73;9.77;;;1.80;99.90;;;;;;5041742;28;20202;-58
2024/03/02 03:56:36;;;;;;;20.37;10.37;;;1.90;99.90;;;;;;5033253;28;20184;-59
2024/03/02 03:59:02;;;;;;;25.70;10.27;;;1.80;99.90;;;;;;5028795;28;20183;-58
2024/03/02 04:01:28;;;;;;;19.87;9.53;;;1.80;99.90;;;;;;5029475;28;20199;-58
2024/03/02 04:03:53;;;;;;;18.67;9.53;;;1.70;99.90;;;;;;5029583;28;20286;-60
2024/03/02 04:06:19;;;;;;;19.03;9.40;;;1.60;99.90;;;;;;5029522;28;20572;-58
2024/03/02 04:08:44;;;;;;;19.90;9.50;;;1.60;99.90;;;;;;5037490;28;20218;-59
2024/03/02 04:11:10;;;;;;;19.83;9.67;;;1.50;99.90;;;;;;5037838;28;20203;-59
2024/03/02 04:13:35;;;;;;;19.53;9.93;;;1.50;99.90;;;;;;5029320;28;20215;-59
2024/03/02 04:16:01;;;;;;;21.50;9.73;;;1.50;99.90;;;;;;5029158;28;20184;-59
2024/03/02 04:18:26;;;;;;;19.57;10.03;;;1.30;99.90;;;;;;5028953;28;20183;-59
2024/03/02 04:20:52;;;;;;;19.07;9.03;;;1.30;99.90;;;;;;5029183;28;20188;-59
2024/03/02 04:23:18;;;;;;;21.87;9.73;;;1.30;99.90;;;;;;5029396;28;20204;-58
2024/03/02 04:25:43;;;;;;;20.60;9.47;;;1.30;99.90;;;;;;5029288;28;20184;-56
2024/03/02 04:28:09;;;;;;;24.53;8.97;;;1.30;99.90;;;;;;5028719;28;20184;-59
2024/03/02 04:30:34;;;;;;;21.70;9.70;;;1.20;99.90;;;;;;5029243;28;20227;-59
2024/03/02 04:33:00;;;;;;;20.07;9.53;;;1.00;99.90;;;;;;5045375;28;20927;-59
2024/03/02 04:35:26;;;;;;;21.27;9.33;;;1.00;99.90;;;;;;5029134;28;20564;-59
2024/03/02 04:37:52;;;;;;;19.93;9.63;;;0.90;99.90;;;;;;5030090;28;20195;-60
2024/03/02 04:40:17;;;;;;;19.93;9.37;;;1.00;99.90;;;;;;5032879;28;20188;-58
2024/03/02 04:42:43;;;;;;;21.37;10.03;;;1.00;99.90;;;;;;5032516;28;20234;-59
2024/03/02 04:45:09;;;;;;;21.03;9.53;;;1.10;99.90;;;;;;5033046;28;20258;-57
2024/03/02 04:47:34;;;;;;;19.57;9.57;;;1.10;99.90;;;;;;5032716;28;20183;-59
2024/03/02 04:50:00;;;;;;;27.93;9.90;;;1.10;99.90;;;;;;5032970;28;20238;-61
2024/03/02 04:52:25;;;;;;;24.27;10.33;;;1.10;99.90;;;;;;5039214;28;20252;-60
2024/03/02 04:55:16;;;;;;;23.10;10.83;;;1.10;99.90;;;;;;5044007;28;20629;-57
2024/03/02 04:57:42;;;;;;;26.83;10.83;;;1.10;99.90;;;;;;5034862;28;20197;-59
2024/03/02 05:00:08;;;;;;;23.70;10.33;;;1.10;99.90;;;;;;5040777;28;20192;-56
2024/03/02 05:02:34;;;;;;;26.03;9.90;;;1.10;99.90;;;;;;5032313;28;20214;-65
2024/03/02 05:05:00;;;;;;;22.13;10.37;;;1.10;99.90;;;;;;5035284;28;20187;-61
2024/03/02 05:07:26;;;;;;;18.90;9.23;;;1.00;99.90;;;;;;5037250;28;20187;-60
2024/03/02 05:09:51;;;;;;;22.30;9.73;;;0.90;99.90;;;;;;5032510;28;20183;-59
2024/03/02 05:15:15;;;;;;;26.67;10.33;;;0.80;99.90;;;;;;5023832;28;20227;-57
2024/03/02 05:17:43;;;;;;;23.07;9.87;;;0.80;99.90;;;;;;5039781;28;20788;-58
2024/03/02 05:20:09;;;;;;;22.10;9.63;;;0.80;99.90;;;;;;5043745;28;20179;-61
2024/03/02 05:22:35;;;;;;;23.67;9.63;;;0.70;99.90;;;;;;5052153;28;20290;-59
2024/03/02 05:25:01;;;;;;;23.30;9.77;;;0.70;99.90;;;;;;5040604;28;20270;-57
2024/03/02 05:27:27;;;;;;;30.00;10.37;;;0.70;99.90;;;;;;5031411;28;20180;-61
2024/03/02 05:29:53;;;;;;;23.47;9.60;;;0.60;99.90;;;;;;5048545;28;20555;-61
2024/03/02 05:32:18;;;;;;;21.20;9.73;;;0.60;99.90;;;;;;5031977;28;20204;-58
2024/03/02 05:34:44;;;;;;;25.20;9.93;;;0.60;99.90;;;;;;5039977;28;20214;-61
2024/03/02 05:37:09;;;;;;;23.40;9.57;;;0.50;99.90;;;;;;5035436;28;20207;-60
2024/03/02 05:39:35;;;;;;;22.60;10.23;;;0.40;99.90;;;;;;5043615;28;20187;-59
2024/03/02 05:42:00;;;;;;;25.40;10.50;;;0.40;99.90;;;;;;5031933;28;20179;-60
2024/03/02 05:44:26;;;;;;;23.40;10.90;;;0.40;99.90;;;;;;5031896;28;20203;-60
2024/03/02 05:46:52;;;;;;;32.10;11.10;;;0.40;99.90;;;;;;5039840;28;20202;-60
2024/03/02 05:49:18;;;;;;;22.90;9.83;;;0.40;99.90;;;;;;5044086;28;20217;-60
2024/03/02 05:51:43;;;;;;;25.70;10.83;;;0.50;99.90;;;;;;5034865;28;20670;-61
2024/03/02 05:54:09;;;;;;;23.40;10.80;;;0.50;99.90;;;;;;5047162;28;20230;-60
2024/03/02 05:56:35;;;;;;;21.93;10.40;;;0.60;99.90;;;;;;5039339;28;20242;-59
2024/03/02 05:59:13;;;;;;;22.10;9.60;;;0.70;99.90;;;;;;5039196;28;20187;-61
2024/03/02 06:01:39;;;;;;;28.43;11.23;;;0.70;99.90;;;;;;5031521;28;20721;-57
2024/03/02 06:04:05;;;;;;;23.57;10.67;;;0.80;99.90;;;;;;5031867;28;20234;-61
2024/03/02 06:06:33;;;;;;;25.20;10.60;;;0.70;99.90;;;;;;5039660;28;20203;-60
2024/03/02 06:09:07;;;;;;;22.37;10.47;;;0.80;99.90;;;;;;5031141;28;20195;-61
2024/03/02 06:11:33;;;;;;;21.60;9.90;;;0.90;99.90;;;;;;5039295;28;20188;-59
2024/03/02 06:13:59;;;;;;;24.43;11.57;;;0.90;99.90;;;;;;5041560;28;20239;-60
2024/03/02 06:16:24;;;;;;;23.00;10.40;;;1.00;99.90;;;;;;5036508;28;20222;-57
2024/03/02 06:18:50;;;;;;;25.90;10.47;;;1.00;99.90;;;;;;5032065;28;20241;-58
2024/03/02 06:21:15;;;;;;;31.77;11.27;;;1.10;99.90;;;;;;5043029;28;20187;-59
2024/03/02 06:23:41;;;;;;;27.30;11.17;;;1.20;99.90;;;;;;5034062;28;20307;-59
2024/03/02 06:26:06;;;;;;;27.50;11.83;;;1.20;99.90;;;;;;5037889;28;20255;-59
2024/03/02 06:28:32;;;;;;;28.27;12.53;;;1.30;99.90;;;;;;5044879;28;20270;-60
2024/03/02 06:30:57;;;;;;;28.27;12.00;;;1.30;99.90;;;;;;5033779;28;20176;-60
2024/03/02 06:33:23;;;;;;;25.17;12.47;;;1.30;99.90;;;;;;5044220;28;20253;-60
2024/03/02 06:35:49;;;;;;;31.17;13.33;;;1.30;99.90;;;;;;5038383;28;20237;-60
2024/03/02 06:38:14;;;;;;;27.77;11.80;;;1.40;99.90;;;;;;5037744;28;20184;-59
2024/03/02 06:40:40;;;;;;;48.17;18.27;;;1.40;99.90;;;;;;5030146;28;20280;-58
2024/03/02 06:43:06;;;;;;;40.87;14.67;;;1.50;99.90;;;;;;5015713;28;20202;-59
2024/03/02 06:45:33;;;;;;;37.77;14.50;;;1.50;99.90;;;;;;5035163;28;20248;-56
2024/03/02 06:47:59;;;;;;;31.63;14.00;;;1.50;99.90;;;;;;5029527;28;20188;-60
2024/03/02 06:50:25;;;;;;;36.53;14.57;;;1.50;99.90;;;;;;5030455;28;20546;-60
2024/03/02 06:52:50;;;;;;;29.93;12.50;;;1.60;99.90;;;;;;5031538;28;20211;-60
2024/03/02 06:55:16;;;;;;;30.00;13.10;;;1.70;99.90;;;;;;5036520;28;20250;-58
2024/03/02 06:57:41;;;;;;;40.23;15.03;;;1.70;99.90;;;;;;5028994;28;20188;-59
2024/03/02 07:00:08;;;;;;;44.97;15.53;;;1.80;99.90;;;;;;5029264;28;20179;-54
2024/03/02 07:02:34;;;;;;;36.63;15.27;;;1.80;99.90;;;;;;5044960;28;20218;-53
2024/03/02 07:05:00;;;;;;;42.20;14.40;;;1.80;99.90;;;;;;5049467;28;20232;-55
2024/03/02 07:07:26;;;;;;;34.23;14.50;;;1.80;99.90;;;;;;5034053;28;20568;-56
2024/03/02 07:09:51;;;;;;;38.63;14.47;;;1.90;99.90;;;;;;5037016;28;20806;-53
2024/03/02 07:12:17;;;;;;;35.57;14.47;;;2.00;99.90;;;;;;5029404;28;20290;-51
2024/03/02 07:17:26;;;;;;;36.90;14.60;;;2.20;99.90;;;;;;5048681;28;20198;-51
2024/03/02 07:19:52;;;;;;;43.97;14.90;;;2.30;99.90;;;;;;5031854;28;20191;-54
2024/03/02 07:22:17;;;;;;;38.40;15.67;;;2.40;99.90;;;;;;5043455;28;20210;-52
2024/03/02 07:24:43;;;;;;;39.97;16.23;;;2.60;99.90;;;;;;5029754;28;20187;-53
2024/03/02 07:27:10;;;;;;;36.97;16.13;;;2.80;99.90;;;;;;5044094;28;20206;-56
2024/03/02 07:29:36;;;;;;;40.60;16.03;;;2.90;99.90;;;;;;5036264;28;20248;-55
2024/03/02 07:32:01;;;;;;;40.13;16.03;;;3.00;99.90;;;;;;5039909;28;20187;-56
2024/03/02 07:34:27;;;;;;;39.00;15.80;;;3.00;99.90;;;;;;5040133;28;20708;-52
2024/03/02 07:36:53;;;;;;;39.73;17.00;;;3.10;99.90;;;;;;5029947;28;20755;-53
2024/03/02 07:39:19;;;;;;;45.37;18.17;;;3.20;99.90;;;;;;5028002;28;20599;-54
2024/03/02 07:41:46;;;;;;;39.63;17.13;;;3.30;99.90;;;;;;5028287;28;20254;-51
2024/03/02 07:44:14;;;;;;;40.47;18.27;;;3.40;99.90;;;;;;5036403;28;20220;-51
2024/03/02 07:46:41;;;;;;;42.10;18.63;;;3.50;99.90;;;;;;5028387;28;20218;-56
2024/03/02 07:49:07;;;;;;;39.73;17.23;;;3.70;99.90;;;;;;5028171;28;20182;-55
2024/03/02 07:51:32;;;;;;;32.90;13.53;;;3.80;99.90;;;;;;5028400;28;20184;-55
2024/03/02 07:53:58;;;;;;;26.80;13.00;;;3.90;99.90;;;;;;5036208;28;20215;-56
2024/03/02 07:56:23;;;;;;;32.20;13.57;;;4.20;99.90;;;;;;5027548;28;20203;-54
2024/03/02 07:58:49;;;;;;;35.53;14.20;;;4.30;99.90;;;;;;5035981;28;20237;-54
2024/03/02 08:01:15;;;;;;;31.57;14.20;;;4.50;99.90;;;;;;5035256;28;20667;-53
2024/03/02 08:03:41;;;;;;;37.93;15.93;;;4.60;99.90;;;;;;5028109;28;20254;-54
2024/03/02 08:06:06;;;;;;;43.37;17.80;;;5.10;99.90;;;;;;5036512;28;20510;-53
2024/03/02 08:08:32;;;;;;;36.83;16.90;;;5.60;99.90;;;;;;5040070;28;20612;-56
2024/03/02 08:10:57;;;;;;;33.97;14.80;;;6.10;99.90;;;;;;5037591;28;20561;-54
2024/03/02 08:13:23;;;;;;;34.00;14.60;;;6.70;99.90;;;;;;5042475;28;20248;-50
2024/03/02 08:15:49;;;;;;;31.30;15.13;;;7.00;99.90;;;;;;5034249;28;20753;-52
2024/03/02 08:18:14;;;;;;;34.33;14.70;;;6.80;99.90;;;;;;5039477;28;20241;-57
2024/03/02 08:20:40;;;;;;;28.70;14.63;;;6.70;99.90;;;;;;5040175;28;20271;-56
2024/03/02 08:23:06;;;;;;;27.67;13.50;;;6.70;99.90;;;;;;5040370;28;20199;-55
2024/03/02 08:25:32;;;;;;;27.70;13.57;;;6.80;99.90;;;;;;5047201;28;20194;-54
2024/03/02 08:27:58;;;;;;;29.57;13.07;;;6.80;99.90;;;;;;5040050;28;20187;-50
2024/03/02 08:30:24;;;;;;;23.07;12.63;;;6.80;99.90;;;;;;5031966;28;20214;-52
2024/03/02 08:32:49;;;;;;;28.90;13.63;;;7.40;99.90;;;;;;5031739;28;20750;-50
2024/03/02 08:35:15;;;;;;;24.00;11.73;;;8.10;99.90;;;;;;5031724;28;20222;-57
2024/03/02 08:37:42;;;;;;;24.37;12.60;;;8.30;99.90;;;;;;5047123;28;20348;-50
2024/03/02 08:40:09;;;;;;;33.10;14.00;;;8.40;99.90;;;;;;5051500;28;20577;-52
2024/03/02 08:42:34;;;;;;;32.27;13.73;;;8.80;99.90;;;;;;5035860;28;20581;-54
2024/03/02 08:45:00;;;;;;;26.13;13.00;;;9.20;99.90;;;;;;5047769;28;20203;-52
2024/03/02 08:47:27;;;;;;;23.53;12.30;;;9.90;99.90;;;;;;5036866;28;20619;-51
2024/03/02 08:49:53;;;;;;;22.70;11.57;;;10.30;99.90;;;;;;5041461;28;20610;-53
2024/03/02 08:52:18;;;;;;;27.10;12.30;;;10.50;99.90;;;;;;5031114;28;20204;-55
2024/03/02 08:54:44;;;;;;;22.03;11.37;;;10.90;99.90;;;;;;5031240;28;20540;-58
2024/03/02 08:57:09;;;;;;;21.57;11.23;;;11.40;99.90;;;;;;5034331;28;20167;-61
2024/03/02 08:59:35;;;;;;;21.53;11.23;;;11.50;99.90;;;;;;5035643;28;20195;-57
2024/03/02 09:02:01;;;;;;;22.13;11.60;;;12.10;99.90;;;;;;5047447;28;20859;-56
2024/03/02 09:04:28;;;;;;;21.13;10.60;;;12.30;99.90;;;;;;5039356;28;20192;-56
2024/03/02 09:06:53;;;;;;;19.47;10.27;;;12.60;99.90;;;;;;5038850;28;20660;-53
2024/03/02 09:09:19;;;;;;;23.80;11.80;;;13.00;99.90;;;;;;5030618;28;20203;-55
2024/03/02 09:11:46;;;;;;;18.87;9.93;;;13.10;99.90;;;;;;5030714;28;20201;-55
2024/03/02 09:14:12;;;;;;;17.13;9.17;;;13.20;99.90;;;;;;5030797;28;20203;-55
2024/03/02 09:16:38;;;;;;;14.53;8.07;;;13.30;99.90;;;;;;5037738;28;20577;-56
2024/03/02 09:19:03;;;;;;;16.10;8.87;;;13.70;99.90;;;;;;5031363;28;20267;-52
2024/03/02 09:21:30;;;;;;;17.23;8.83;;;13.40;99.90;;;;;;5030830;28;20536;-52
2024/03/02 09:23:56;;;;;;;14.87;7.80;;;13.40;99.90;;;;;;5032557;28;20214;-54
2024/03/02 09:26:24;;;;;;;15.43;7.80;;;13.70;99.90;;;;;;5036961;28;20186;-54
2024/03/02 09:28:50;;;;;;;13.47;7.50;;;13.60;99.90;;;;;;5039410;28;20278;-54
2024/03/02 09:31:16;;;;;;;13.57;7.63;;;13.10;99.90;;;;;;5042556;28;20286;-53
2024/03/02 09:33:41;;;;;;;13.10;7.23;;;13.00;99.90;;;;;;5050583;28;20249;-55
2024/03/02 09:36:18;;;;;;;13.73;7.53;;;13.10;99.90;;;;;;5030011;28;20737;-53
2024/03/02 09:38:43;;;;;;;11.53;6.73;;;13.10;99.90;;;;;;5038779;28;20170;-52
2024/03/02 09:41:09;;;;;;;13.83;7.23;;;13.10;99.90;;;;;;5034364;28;20262;-51
2024/03/02 09:43:34;;;;;;;12.13;6.33;;;12.70;99.90;;;;;;5034856;28;20262;-52
2024/03/02 09:46:00;;;;;;;13.80;6.80;;;12.40;99.90;;;;;;5038664;28;20214;-53
2024/03/02 09:48:26;;;;;;;12.37;6.40;;;12.50;99.90;;;;;;5035585;28;20638;-54
2024/03/02 09:50:51;;;;;;;13.93;6.13;;;12.30;99.90;;;;;;5041081;28;20190;-51
2024/03/02 09:53:18;;;;;;;13.80;5.80;;;12.40;99.90;;;;;;5030668;28;20230;-52
2024/03/02 09:55:47;;;;;;;9.57;5.00;;;12.40;99.90;;;;;;5030343;28;20290;-54
2024/03/02 09:58:13;;;;;;;11.27;5.17;;;12.60;99.90;;;;;;5041127;28;20261;-50
2024/03/02 10:00:38;;;;;;;12.97;5.23;;;12.60;99.90;;;;;;5041973;28;20254;-52
2024/03/02 10:03:07;;;;;;;12.60;6.10;;;12.70;99.90;;;;;;5038633;28;20312;-53
2024/03/02 10:05:33;;;;;;;11.07;5.30;;;12.60;99.90;;;;;;5037547;28;20191;-55
2024/03/02 10:08:01;;;;;;;9.07;5.13;;;12.80;99.90;;;;;;5045885;28;20191;-56
2024/03/02 10:10:35;;;;;;;12.20;6.20;;;13.00;99.90;;;;;;5030172;28;20191;-54
2024/03/02 10:13:09;;;;;;;15.97;5.93;;;13.40;99.90;;;;;;5029680;28;20194;-54
2024/03/02 10:15:35;;;;;;;16.27;6.63;;;13.50;99.90;;;;;;5029861;28;20203;-54
2024/03/02 10:18:01;;;;;;;14.03;4.60;;;13.70;99.90;;;;;;5029202;28;20192;-54
2024/03/02 10:20:32;;;;;;;8.90;4.47;;;13.90;99.90;;;;;;5043520;28;20182;-53
2024/03/02 10:23:18;;;;;;;7.87;4.37;;;14.00;99.90;;;;;;5033030;28;20199;-51
2024/03/02 10:25:45;;;;;;;8.60;3.77;;;14.00;99.90;;;;;;5041069;28;20186;-57
2024/03/02 10:28:10;;;;;;;8.60;4.13;;;14.00;99.90;;;;;;5028681;28;20214;-54
2024/03/02 10:30:36;;;;;;;11.17;3.70;;;14.30;99.90;;;;;;5045320;28;20183;-54
2024/03/02 10:33:03;;;;;;;5.67;3.57;;;14.50;99.90;;;;;;5030299;28;20556;-54
2024/03/02 10:35:28;;;;;;;7.27;4.00;;;14.30;99.90;;;;;;5028986;28;20330;-54
2024/03/02 10:37:54;;;;;;;7.10;4.00;;;14.40;99.90;;;;;;5037043;28;20699;-52
2024/03/02 10:40:23;;;;;;;9.17;4.10;;;14.20;99.90;;;;;;5034525;28;20254;-52
2024/03/02 10:42:52;;;;;;;7.00;3.77;;;14.30;99.90;;;;;;5031709;28;20203;-58
2024/03/02 10:45:20;;;;;;;7.87;4.00;;;14.70;99.90;;;;;;5042596;28;20213;-51
2024/03/02 10:47:47;;;;;;;8.20;3.57;;;15.10;99.90;;;;;;5039767;28;20197;-53
2024/03/02 10:50:13;;;;;;;6.17;3.60;;;15.30;99.90;;;;;;5033424;28;20187;-51
2024/03/02 10:52:39;;;;;;;11.07;4.13;;;15.50;99.90;;;;;;5033674;28;20218;-55
2024/03/02 10:55:05;;;;;;;7.70;3.70;;;15.60;99.90;;;;;;5028853;28;20691;-54
2024/03/02 10:57:56;;;;;;;9.18;4.05;;;15.70;99.90;;;;;;5027994;28;20450;-55
2024/03/02 11:00:29;;;;;;;5.10;3.50;;;15.80;99.90;;;;;;5029136;28;20635;-51
2024/03/02 11:02:57;;;;;;;6.20;3.47;;;16.00;99.90;;;;;;5037044;28;20231;-54
2024/03/02 11:05:28;;;;;;;6.77;3.60;;;16.30;99.90;;;;;;5036488;28;20188;-55
2024/03/02 11:08:00;;;;;;;7.63;3.60;;;16.10;99.90;;;;;;5029406;28;20626;-56
2024/03/02 11:10:26;;;;;;;5.80;3.23;;;15.80;99.90;;;;;;5040815;28;20190;-54
2024/03/02 11:13:01;;;;;;;6.20;2.20;;;15.30;99.90;;;;;;5047325;28;20302;-60
2024/03/02 11:15:28;;;;;;;5.57;1.90;;;15.60;99.90;;;;;;5028872;28;20626;-54
2024/03/02 11:17:54;;;;;;;2.20;1.60;;;15.40;99.90;;;;;;5027820;28;20251;-55
2024/03/02 11:20:21;;;;;;;5.00;1.80;;;15.00;99.90;;;;;;5028727;28;20176;-60
2024/03/02 11:22:46;;;;;;;2.60;1.77;;;14.40;99.90;;;;;;5045453;28;20579;-57
2024/03/02 11:25:32;;;;;;;3.50;1.80;;;14.60;99.90;;;;;;5036670;28;20188;-57
2024/03/02 11:28:10;;;;;;;2.97;1.37;;;14.90;99.90;;;;;;5027855;28;20210;-56
2024/03/02 11:30:37;;;;;;;3.83;1.80;;;15.10;99.90;;;;;;5037116;28;20187;-55
2024/03/02 11:33:07;;;;;;;4.83;2.20;;;15.20;99.90;;;;;;5047776;28;20207;-55
2024/03/02 11:35:34;;;;;;;4.27;1.90;;;15.30;99.90;;;;;;5041859;28;20218;-56
2024/03/02 11:38:03;;;;;;;2.83;1.70;;;15.30;99.90;;;;;;5036620;28;20211;-53
2024/03/02 11:40:29;;;;;;;4.03;2.20;;;15.40;99.90;;;;;;5028719;28;20262;-58
2024/03/02 11:42:56;;;;;;;5.00;2.57;;;15.50;99.90;;;;;;5037872;28;20199;-59
2024/03/02 11:45:26;;;;;;;5.77;2.10;;;15.80;99.90;;;;;;5043242;28;20626;-57
2024/03/02 11:47:54;;;;;;;4.17;2.20;;;16.10;99.90;;;;;;5039510;28;20235;-53
2024/03/02 11:50:28;;;;;;;3.83;2.37;;;16.00;99.90;;;;;;5037796;28;20183;-55
2024/03/02 11:52:58;;;;;;;3.83;2.37;;;15.90;99.90;;;;;;5043059;28;20203;-57
2024/03/02 11:55:26;;;;;;;4.93;2.20;;;15.90;99.90;;;;;;5032582;28;20211;-58
2024/03/02 11:57:55;;;;;;;2.57;1.73;;;15.80;99.90;;;;;;5032747;28;20659;-56
2024/03/02 12:00:21;;;;;;;3.93;1.73;;;15.60;99.90;;;;;;5044529;28;20186;-55
2024/03/02 12:02:59;;;;;;;3.30;1.70;;;15.70;99.90;;;;;;5035486;28;20634;-57
2024/03/02 12:05:26;;;;;;;6.73;2.30;;;15.50;99.90;;;;;;5045585;28;20751;-57
2024/03/02 12:08:15;;;;;;;3.57;1.90;;;15.20;99.90;;;;;;5033949;28;20203;-58
2024/03/02 12:10:41;;;;;;;5.57;2.20;;;15.00;99.90;;;;;;5039614;28;20194;-59
2024/03/02 12:13:09;;;;;;;3.03;1.73;;;15.10;99.90;;;;;;5043523;28;20544;-58
2024/03/02 12:15:36;;;;;;;6.23;1.90;;;15.00;99.90;;;;;;5043790;28;20591;-58
2024/03/02 12:18:03;;;;;;;3.60;1.93;;;14.70;99.90;;;;;;5032389;28;20242;-57
2024/03/02 12:20:31;;;;;;;2.90;1.70;;;14.80;99.90;;;;;;5032261;28;20202;-58
2024/03/02 12:23:02;;;;;;;3.17;1.77;;;15.00;99.90;;;;;;5048544;28;20689;-56
2024/03/02 12:25:28;;;;;;;2.93;1.70;;;15.30;99.90;;;;;;5032231;28;20191;-57
2024/03/02 12:27:59;;;;;;;3.67;2.00;;;15.90;99.90;;;;;;5021353;28;20190;-56
2024/03/02 12:30:29;;;;;;;6.17;2.37;;;16.10;99.90;;;;;;5045994;28;20198;-56
2024/03/02 12:32:55;;;;;;;4.30;1.77;;;16.40;99.90;;;;;;5043148;28;20245;-57
2024/03/02 12:35:20;;;;;;;2.93;1.60;;;16.50;99.90;;;;;;5047003;28;20215;-58
2024/03/02 12:37:50;;;;;;;3.57;1.60;;;16.80;99.90;;;;;;5031567;28;20190;-51
2024/03/02 12:40:18;;;;;;;2.90;1.80;;;16.70;99.90;;;;;;5031742;28;20210;-54
2024/03/02 12:42:47;;;;;;;4.20;1.70;;;16.40;99.90;;;;;;5032081;28;20575;-57
2024/03/02 12:45:13;;;;;;;3.97;1.70;;;16.00;99.90;;;;;;5031524;28;20202;-52